createdAt,value
2023-02-22T00:01:35.668Z,27.00
2023-02-22T00:04:39.908Z,30.15
2023-02-22T00:07:42.405Z,26.33
2023-02-22T00:10:45.424Z,29.80
2023-02-22T00:13:50.640Z,25.50
2023-02-22T00:16:53.014Z,27.35
2023-02-22T00:19:55.240Z,28.10
2023-02-22T00:22:57.560Z,28.70
2023-02-22T00:26:01.357Z,33.47
2023-02-22T00:29:03.721Z,25.37
2023-02-22T00:32:06.203Z,27.83
2023-02-22T00:35:09.000Z,29.90
2023-02-22T00:38:12.099Z,26.08
2023-02-22T00:41:15.226Z,26.37
2023-02-22T00:44:17.642Z,25.80
2023-02-22T00:47:20.033Z,27.30
2023-02-22T00:50:24.957Z,26.23
2023-02-22T00:53:27.436Z,25.42
2023-02-22T00:56:29.778Z,26.97
2023-02-22T00:59:32.166Z,24.10
2023-02-22T01:02:34.760Z,25.37
2023-02-22T01:05:38.481Z,26.27
2023-02-22T01:08:45.267Z,24.23
2023-02-22T01:11:49.082Z,22.60
2023-02-22T01:14:51.622Z,26.33
2023-02-22T01:17:55.091Z,28.80
2023-02-22T01:20:57.516Z,29.25
2023-02-22T01:24:00.022Z,27.87
2023-02-22T01:27:02.816Z,34.00
2023-02-22T01:30:08.838Z,37.03
2023-02-22T01:33:13.026Z,30.85
2023-02-22T01:36:15.299Z,28.45
2023-02-22T01:39:18.200Z,27.85
2023-02-22T01:42:20.571Z,29.53
2023-02-22T01:45:35.005Z,24.87
2023-02-22T01:48:45.297Z,29.52
2023-02-22T01:51:52.002Z,27.83
2023-02-22T01:54:58.383Z,26.33
2023-02-22T01:58:01.664Z,27.70
2023-02-22T02:01:05.701Z,25.27
2023-02-22T02:04:20.935Z,21.80
2023-02-22T02:07:25.066Z,29.55
2023-02-22T02:10:28.511Z,17.98
2023-02-22T02:13:30.961Z,29.13
2023-02-22T02:16:46.439Z,24.47
2023-02-22T02:20:11.824Z,22.35
2023-02-22T02:23:52.629Z,22.58
2023-02-22T02:27:13.925Z,24.60
2023-02-22T02:30:25.510Z,25.43
2023-02-22T02:33:35.326Z,22.33
2023-02-22T02:36:47.696Z,23.45
2023-02-22T02:39:55.905Z,22.33
2023-02-22T02:43:05.333Z,22.73
2023-02-22T02:46:15.513Z,29.13
2023-02-22T02:49:27.683Z,24.37
2023-02-22T02:52:33.495Z,22.77
2023-02-22T02:55:37.313Z,23.58
2023-02-22T02:58:46.353Z,25.20
2023-02-22T03:02:07.670Z,20.83
2023-02-22T03:05:28.162Z,20.83
2023-02-22T03:09:01.652Z,23.80
2023-02-22T03:12:22.284Z,22.85
2023-02-22T03:16:13.026Z,23.15
2023-02-22T03:19:45.977Z,26.27
2023-02-22T03:22:57.973Z,22.80
2023-02-22T03:26:13.499Z,27.15
2023-02-22T03:29:18.852Z,31.08
2023-02-22T03:32:25.571Z,25.73
2023-02-22T03:35:35.581Z,29.83
2023-02-22T03:38:41.157Z,34.20
2023-02-22T03:41:51.595Z,30.55
2023-02-22T03:44:55.412Z,38.58
2023-02-22T03:48:05.024Z,36.45
2023-02-22T03:51:07.911Z,32.30
2023-02-22T03:54:16.589Z,31.53
2023-02-22T03:57:29.516Z,31.37
2023-02-22T04:00:35.150Z,31.65
2023-02-22T04:03:37.466Z,29.02
2023-02-22T04:06:39.861Z,23.80
2023-02-22T04:09:42.719Z,29.43
2023-02-22T04:12:45.457Z,26.77
2023-02-22T04:15:47.894Z,25.90
2023-02-22T04:18:50.369Z,24.15
2023-02-22T04:21:52.999Z,22.40
2023-02-22T04:24:55.357Z,22.17
2023-02-22T04:27:58.022Z,22.13
2023-02-22T04:31:00.974Z,22.27
2023-02-22T04:34:04.134Z,22.60
2023-02-22T04:37:07.878Z,23.10
2023-02-22T04:40:11.776Z,18.47
2023-02-22T04:43:14.101Z,18.75
2023-02-22T04:46:16.715Z,28.52
2023-02-22T04:49:19.189Z,21.98
2023-02-22T04:52:21.933Z,23.67
2023-02-22T04:55:24.367Z,23.37
2023-02-22T04:58:26.851Z,24.10
2023-02-22T05:01:33.978Z,21.45
2023-02-22T05:04:38.890Z,26.75
2023-02-22T05:07:41.272Z,20.73
2023-02-22T05:10:43.888Z,21.73
2023-02-22T05:13:46.942Z,19.10
2023-02-22T05:16:50.167Z,19.75
2023-02-22T05:19:52.996Z,20.88
2023-02-22T05:23:00.246Z,24.27
2023-02-22T05:26:02.584Z,23.63
2023-02-22T05:29:05.308Z,24.15
2023-02-22T05:32:07.735Z,22.90
2023-02-22T05:35:10.059Z,21.55
2023-02-22T05:38:15.547Z,21.27
2023-02-22T05:41:18.583Z,20.17
2023-02-22T05:44:21.183Z,21.08
2023-02-22T05:47:23.652Z,21.75
2023-02-22T05:50:27.190Z,25.45
2023-02-22T05:53:29.694Z,22.07
2023-02-22T05:56:32.097Z,39.23
2023-02-22T05:59:34.422Z,42.90
2023-02-22T06:02:37.060Z,101.97
2023-02-22T06:05:39.625Z,74.07
2023-02-22T06:08:42.037Z,62.03
2023-02-22T06:11:44.459Z,91.07
2023-02-22T06:14:46.840Z,91.12
2023-02-22T06:17:49.288Z,73.35
2023-02-22T06:20:54.466Z,42.22
2023-02-22T06:23:57.096Z,35.37
2023-02-22T06:27:01.727Z,47.97
2023-02-22T06:30:05.401Z,36.33
2023-02-22T06:33:08.311Z,51.13
2023-02-22T06:36:10.959Z,44.00
2023-02-22T06:39:13.338Z,46.13
2023-02-22T06:42:15.715Z,29.83
2023-02-22T06:45:18.729Z,32.30
2023-02-22T06:48:21.114Z,30.33
2023-02-22T06:51:24.120Z,45.85
2023-02-22T06:54:27.425Z,57.57
2023-02-22T06:57:29.764Z,46.70
2023-02-22T07:00:33.059Z,41.72
2023-02-22T07:03:36.437Z,39.83
2023-02-22T07:06:38.761Z,28.77
2023-02-22T07:09:41.115Z,25.57
2023-02-22T07:12:43.539Z,24.57
2023-02-22T07:15:45.940Z,24.33
2023-02-22T07:18:48.267Z,24.08
2023-02-22T07:21:51.129Z,24.55
2023-02-22T07:24:55.878Z,26.73
2023-02-22T07:27:59.865Z,25.57
2023-02-22T07:31:02.485Z,22.55
2023-02-22T07:34:04.896Z,22.92
2023-02-22T07:37:07.282Z,23.92
2023-02-22T07:40:10.429Z,22.93
2023-02-22T07:43:31.886Z,28.50
2023-02-22T07:46:34.277Z,23.27
2023-02-22T07:49:37.315Z,24.35
2023-02-22T07:52:39.703Z,20.48
2023-02-22T07:55:42.034Z,25.00
2023-02-22T07:58:44.498Z,25.63
2023-02-22T08:01:50.194Z,24.98
2023-02-22T08:04:52.506Z,27.02
2023-02-22T08:07:55.020Z,27.35
2023-02-22T08:10:57.488Z,25.75
2023-02-22T08:13:59.964Z,27.40
2023-02-22T08:17:02.477Z,26.05
2023-02-22T08:20:05.308Z,26.25
2023-02-22T08:23:08.868Z,31.75
2023-02-22T08:26:15.847Z,33.85
2023-02-22T08:29:18.158Z,32.00
2023-02-22T08:32:20.972Z,27.17
2023-02-22T08:35:23.580Z,30.90
2023-02-22T08:38:29.391Z,30.23
2023-02-22T08:41:31.758Z,33.72
2023-02-22T08:44:34.178Z,29.13
2023-02-22T08:47:36.907Z,32.53
2023-02-22T08:50:41.599Z,29.85
2023-02-22T08:53:44.597Z,26.48
2023-02-22T08:56:46.895Z,28.42
2023-02-22T08:59:49.343Z,29.07
2023-02-22T09:02:53.224Z,26.62
2023-02-22T09:05:56.301Z,27.40
2023-02-22T09:08:58.808Z,29.75
2023-02-22T09:12:01.159Z,27.40
2023-02-22T09:15:04.121Z,28.27
2023-02-22T09:18:08.734Z,29.92
2023-02-22T09:21:12.047Z,26.65
2023-02-22T09:24:14.912Z,25.67
2023-02-22T09:27:20.310Z,26.60
2023-02-22T09:30:25.284Z,25.17
2023-02-22T09:33:27.589Z,22.17
2023-02-22T09:36:30.058Z,22.60
2023-02-22T09:39:37.942Z,23.60
2023-02-22T09:42:47.172Z,23.95
2023-02-22T09:46:19.685Z,20.77
2023-02-22T09:49:34.787Z,19.23
2023-02-22T09:52:41.711Z,21.02
2023-02-22T09:55:51.239Z,18.80
2023-02-22T09:58:59.609Z,21.27
2023-02-22T10:02:30.503Z,18.43
2023-02-22T10:05:43.016Z,14.38
2023-02-22T10:08:45.656Z,16.95
2023-02-22T10:12:15.301Z,17.15
2023-02-22T10:15:32.786Z,17.58
2023-02-22T10:19:01.866Z,16.30
2023-02-22T10:22:07.905Z,17.85
2023-02-22T10:25:26.059Z,16.50
2023-02-22T10:28:38.322Z,14.80
2023-02-22T10:31:47.328Z,18.00
2023-02-22T10:34:54.076Z,15.33
2023-02-22T10:38:17.446Z,16.52
2023-02-22T10:41:28.040Z,15.88
2023-02-22T10:44:30.853Z,15.75
2023-02-22T10:47:34.152Z,15.25
2023-02-22T10:50:41.018Z,14.03
2023-02-22T10:53:43.417Z,15.10
2023-02-22T10:56:52.458Z,13.98
2023-02-22T10:59:57.763Z,14.70
2023-02-22T11:03:02.580Z,15.63
2023-02-22T11:06:19.588Z,16.83
2023-02-22T11:09:22.806Z,14.02
2023-02-22T11:12:32.303Z,11.48
2023-02-22T11:15:36.241Z,12.95
2023-02-22T11:18:38.532Z,15.32
2023-02-22T11:21:41.764Z,12.03
2023-02-22T11:24:51.271Z,14.32
2023-02-22T11:27:54.299Z,14.95
2023-02-22T11:30:59.341Z,11.95
2023-02-22T11:34:04.040Z,12.02
2023-02-22T11:37:37.023Z,13.63
2023-02-22T11:40:40.385Z,11.12
2023-02-22T11:43:48.140Z,11.60
2023-02-22T11:46:52.177Z,11.82
2023-02-22T11:49:54.688Z,10.50
2023-02-22T11:53:12.032Z,10.97
2023-02-22T11:56:37.770Z,13.62
2023-02-22T11:59:41.092Z,13.52
2023-02-22T12:03:33.552Z,12.45
2023-02-22T12:06:53.848Z,11.35
2023-02-22T12:10:23.077Z,11.83
2023-02-22T12:13:44.529Z,10.55
2023-02-22T12:16:49.768Z,10.43
2023-02-22T12:19:59.755Z,12.63
2023-02-22T12:23:34.040Z,10.45
2023-02-22T12:26:41.500Z,13.97
2023-02-22T12:29:50.789Z,11.93
2023-02-22T12:32:55.546Z,11.77
2023-02-22T12:36:00.946Z,9.85
2023-02-22T12:39:29.749Z,11.73
2023-02-22T12:42:57.942Z,10.87
2023-02-22T12:46:16.351Z,10.70
2023-02-22T12:49:30.886Z,12.77
2023-02-22T12:52:37.735Z,10.05
2023-02-22T12:55:48.026Z,11.30
2023-02-22T12:58:54.887Z,11.70
2023-02-22T13:02:04.372Z,14.13
2023-02-22T13:05:14.161Z,11.63
2023-02-22T13:08:38.785Z,12.35
2023-02-22T13:11:53.057Z,12.02
2023-02-22T13:15:11.062Z,10.70
2023-02-22T13:18:19.152Z,10.90
2023-02-22T13:21:36.567Z,10.25
2023-02-22T13:24:53.081Z,9.88
2023-02-22T13:28:10.505Z,9.85
2023-02-22T13:31:39.321Z,9.80
2023-02-22T13:34:58.243Z,9.80
2023-02-22T13:38:35.596Z,9.75
2023-02-22T13:41:46.521Z,8.70
2023-02-22T13:45:08.123Z,10.32
2023-02-22T13:48:47.917Z,9.33
2023-02-22T13:51:59.070Z,10.18
2023-02-22T13:55:11.449Z,9.75
2023-02-22T13:58:14.462Z,9.35
2023-02-22T14:01:43.822Z,12.73
2023-02-22T14:04:46.310Z,10.20
2023-02-22T14:07:49.686Z,10.35
2023-02-22T14:10:56.531Z,9.45
2023-02-22T14:14:19.407Z,11.10
2023-02-22T14:17:25.668Z,10.00
2023-02-22T14:20:37.064Z,10.50
2023-02-22T14:23:45.279Z,10.45
2023-02-22T14:27:04.664Z,10.18
2023-02-22T14:30:07.991Z,9.77
2023-02-22T14:33:47.866Z,12.23
2023-02-22T14:37:07.883Z,11.57
2023-02-22T14:40:27.988Z,10.65
2023-02-22T14:43:30.897Z,9.68
2023-02-22T14:46:40.767Z,10.77
2023-02-22T14:49:48.222Z,12.37
2023-02-22T14:53:23.004Z,12.37
2023-02-22T14:56:36.426Z,10.55
2023-02-22T14:59:54.533Z,11.77
2023-02-22T15:03:00.977Z,10.80
2023-02-22T15:06:06.669Z,10.82
2023-02-22T15:09:16.143Z,12.17
2023-02-22T15:12:31.302Z,11.23
2023-02-22T15:15:33.769Z,12.88
2023-02-22T15:18:43.404Z,11.25
2023-02-22T15:21:46.798Z,14.50
2023-02-22T15:25:00.511Z,13.20
2023-02-22T15:28:05.519Z,12.77
2023-02-22T15:31:27.726Z,13.20
2023-02-22T15:34:32.328Z,11.63
2023-02-22T15:37:35.052Z,14.65
2023-02-22T15:40:43.286Z,12.33
2023-02-22T15:43:45.821Z,13.13
2023-02-22T15:46:48.337Z,14.00
2023-02-22T15:50:16.151Z,16.37
2023-02-22T15:53:40.390Z,25.27
2023-02-22T15:56:55.675Z,28.20
2023-02-22T15:59:58.565Z,30.98
2023-02-22T16:03:01.140Z,19.60
2023-02-22T16:06:12.139Z,15.65
2023-02-22T16:09:23.281Z,17.83
2023-02-22T16:12:28.320Z,14.10
2023-02-22T16:15:36.956Z,14.45
2023-02-22T16:18:40.046Z,16.10
2023-02-22T16:22:03.675Z,15.75
2023-02-22T16:25:18.916Z,13.95
2023-02-22T16:28:36.669Z,16.37
2023-02-22T16:31:41.709Z,16.52
2023-02-22T16:34:45.702Z,15.45
2023-02-22T16:37:57.458Z,16.60
2023-02-22T16:41:01.144Z,16.23
2023-02-22T16:44:08.416Z,19.17
2023-02-22T16:47:13.299Z,19.77
2023-02-22T16:50:17.969Z,21.37
2023-02-22T16:53:24.891Z,22.87
2023-02-22T16:56:34.444Z,43.92
2023-02-22T16:59:40.795Z,24.80
2023-02-22T17:02:45.939Z,41.90
2023-02-22T17:05:50.614Z,35.10
2023-02-22T17:08:54.762Z,45.42
2023-02-22T17:12:00.917Z,61.17
2023-02-22T17:15:05.543Z,45.13
2023-02-22T17:18:23.513Z,29.42
2023-02-22T17:21:28.277Z,41.67
2023-02-22T17:24:34.687Z,66.22
2023-02-22T17:27:38.968Z,83.37
2023-02-22T17:30:44.692Z,92.27
2023-02-22T17:33:48.256Z,48.97
2023-02-22T17:36:51.373Z,74.05
2023-02-22T17:39:56.132Z,94.43
2023-02-22T17:42:59.566Z,98.97
2023-02-22T17:46:08.159Z,78.60
2023-02-22T17:49:14.086Z,77.12
2023-02-22T17:52:17.985Z,58.90
2023-02-22T17:55:22.639Z,55.60
2023-02-22T17:58:31.284Z,51.60
2023-02-22T18:01:34.582Z,53.03
2023-02-22T18:04:39.987Z,48.30
2023-02-22T18:07:44.673Z,44.42
2023-02-22T18:10:47.825Z,40.33
2023-02-22T18:13:53.214Z,46.17
2023-02-22T18:16:56.481Z,49.17
2023-02-22T18:20:01.250Z,46.10
2023-02-22T18:23:12.069Z,53.05
2023-02-22T18:26:18.755Z,59.67
2023-02-22T18:29:22.166Z,54.13
2023-02-22T18:32:30.996Z,54.07
2023-02-22T18:35:35.802Z,61.17
2023-02-22T18:38:44.059Z,56.63
2023-02-22T18:41:52.245Z,61.00
2023-02-22T18:45:01.425Z,61.63
2023-02-22T18:48:05.160Z,50.57
2023-02-22T18:51:11.659Z,76.28
2023-02-22T18:54:15.186Z,56.80
2023-02-22T18:57:23.281Z,56.67
2023-02-22T19:00:30.043Z,51.50
2023-02-22T19:03:39.531Z,47.73
2023-02-22T19:06:45.832Z,54.30
2023-02-22T19:09:51.555Z,53.10
2023-02-22T19:12:55.769Z,49.58
2023-02-22T19:15:59.569Z,46.77
2023-02-22T19:19:07.869Z,47.47
2023-02-22T19:22:16.510Z,45.58
2023-02-22T19:25:23.060Z,34.55
2023-02-22T19:28:34.520Z,30.55
2023-02-22T19:31:40.887Z,30.17
2023-02-22T19:34:46.166Z,32.50
2023-02-22T19:37:54.589Z,32.92
2023-02-22T19:41:00.322Z,37.40
2023-02-22T19:44:05.370Z,37.95
2023-02-22T19:47:10.756Z,36.00
2023-02-22T19:50:16.646Z,36.50
2023-02-22T19:53:21.361Z,37.28
2023-02-22T19:56:29.783Z,35.50
2023-02-22T19:59:34.171Z,33.28
2023-02-22T20:02:40.350Z,30.90
2023-02-22T20:05:54.458Z,34.27
2023-02-22T20:08:58.912Z,30.20
2023-02-22T20:12:06.246Z,31.60
2023-02-22T20:15:12.777Z,33.55
2023-02-22T20:18:18.002Z,37.03
2023-02-22T20:21:32.006Z,34.77
2023-02-22T20:24:37.131Z,31.80
2023-02-22T20:27:41.346Z,29.73
2023-02-22T20:30:45.474Z,33.08
2023-02-22T20:33:53.928Z,29.90
2023-02-22T20:36:58.875Z,31.07
2023-02-22T20:40:05.522Z,27.95
2023-02-22T20:43:10.452Z,30.20
2023-02-22T20:46:14.428Z,26.83
2023-02-22T20:49:23.781Z,30.23
2023-02-22T20:52:28.472Z,27.40
2023-02-22T20:55:35.105Z,28.02
2023-02-22T20:58:38.699Z,28.20
2023-02-22T21:01:42.979Z,27.70
2023-02-22T21:04:46.866Z,26.50
2023-02-22T21:07:50.624Z,27.83
2023-02-22T21:10:56.475Z,31.55
2023-02-22T21:14:01.232Z,27.55
2023-02-22T21:17:05.416Z,26.70
2023-02-22T21:20:13.581Z,32.03
2023-02-22T21:23:18.365Z,28.00
2023-02-22T21:26:24.880Z,30.75
2023-02-22T21:29:30.008Z,33.40
2023-02-22T21:36:34.215Z,29.93
2023-02-22T21:39:37.805Z,28.03
2023-02-22T21:45:54.347Z,25.77
2023-02-22T21:48:58.950Z,26.20
2023-02-22T21:52:04.984Z,28.07
2023-02-22T21:55:08.067Z,26.73
2023-02-22T21:58:10.519Z,25.60
2023-02-22T22:01:17.977Z,24.83
2023-02-22T22:04:23.002Z,28.27
2023-02-22T22:07:25.233Z,24.00
2023-02-22T22:10:33.286Z,23.97
2023-02-22T22:17:00.295Z,24.45
2023-02-22T22:20:05.478Z,20.23
2023-02-22T22:23:08.021Z,28.83
2023-02-22T22:26:13.570Z,24.40
2023-02-22T22:29:15.747Z,27.77
2023-02-22T22:32:20.932Z,25.05
2023-02-22T22:35:23.463Z,24.15
2023-02-22T22:38:29.939Z,20.30
2023-02-22T22:41:34.064Z,21.77
2023-02-22T22:44:42.278Z,23.45
2023-02-22T22:47:46.298Z,18.83
2023-02-22T22:50:57.133Z,18.70
2023-02-22T22:54:00.311Z,18.97
2023-02-22T22:57:04.109Z,21.03
2023-02-22T23:00:29.899Z,19.83
2023-02-22T23:03:33.871Z,20.52
2023-02-22T23:06:47.964Z,18.65
2023-02-22T23:09:50.083Z,17.43
2023-02-22T23:12:53.904Z,21.00
2023-02-22T23:15:56.075Z,16.90
2023-02-22T23:18:59.199Z,17.60
2023-02-22T23:22:01.927Z,20.05
2023-02-22T23:25:05.874Z,19.23
2023-02-22T23:28:14.780Z,19.57
2023-02-22T23:31:18.065Z,19.10
2023-02-22T23:34:23.296Z,18.35
2023-02-22T23:37:25.337Z,21.90
2023-02-22T23:40:29.200Z,18.37
2023-02-22T23:43:34.869Z,20.27
2023-02-22T23:46:41.847Z,21.37
2023-02-22T23:49:49.423Z,21.95
2023-02-22T23:52:59.730Z,18.55
2023-02-22T23:56:01.834Z,22.23
2023-02-22T23:59:11.205Z,22.17
